Terminal Aerodrome Forecast
Issued by NWS Paducah, KY

Home | Current Version | Previous Version | Text Only | Print | Product List | Glossary On
Versions: 1 2 3 4 5 6 7 8 9 10 11 12 13 14 15 16 17 18 19
000
FTUS43 KPAH 302320
TAFEVV
TAF
KEVV 302320Z 0100/0124 17005KT P6SM VCSH SCT015 BKN035 OVC090
      TEMPO 0100/0101 25002KT 2SM SHRA BR BKN015 OVC050
     FM010600 17003KT 2SM BR OVC013
      TEMPO 0111/0113 4SM -SHRA BR OVC018
     FM011400 24005KT P6SM OVC015
     FM012100 18004KT P6SM BKN021=

USA.gov is the U.S. government's official web portal to all federal, state and local government web resources and services.